Decoded Metar for UAUU (KUSTANAY in KAZAKHSTAN) (IATA:KTQ) | Meteo·Mobile Aviation Weather
aviador You're here:

UAUU Decoded Metar

KUSTANAY in KAZAKHSTAN
Report Time2019-09-17 04:00:00
UTC Time2019-09-17 04:29:03
Flight Rules vfr VFR
Wind200° at 14 kt
W.Decomp.*RWY 15: 10.7 kt HW 9.0 kt RCW
Visibility9999 m
Phenomena:N/A
Clouds:N/A
Expected CloudBase > 3,200 ft AGL from Temp-Dew spread
CeilingNone
Temp13°C (ISA -1)
Dew Point05°C (59% RH)
AAT6.9°C
QNH1009 hPa
Density Alt758 ft
Elevation597 ft
Report Wrong Elevation
Raw Report
UAUU 170400Z 20007MPS CAVOK 13/05 Q1009 NOSIG RMK QFE740/0987=

Extra information for UAUU:More info

Metar Taf Metar & Taf Last 4 Metars F.Rules Stats Wind Profile Meteogram Temp Stats Airport Information Weather charts Add Link Nearby VenuesMetar ALERT Operation Metar Decoded Social comments